Flight Track Log - Related Links

Times and Time Zones

All times are in EDT time to prevent confusion due to time zone crossing. See the ASQ4636 flight status page for this flight to view local times or setup timezone preferences in your user account.

Time Position Orientation Groundspeed Altitude Reporting Facility
EDT Latitude Longitude Course Direction KTS MPH feet Rate Location/Type
Tue 06:19:17 AM 26.1592 -98.2242 22° Northeast 195 224 700  Level Houston Center
Tue 06:20:24 AM 26.2075 -98.1831 37° Northeast 270 311 2,900 2,139 Climbing Houston Center
Tue 06:21:12 AM 26.2656 -98.1608 19° North 280 322 4,800 2,587 Climbing Houston Center
Tue 06:22:00 AM 26.4339 -98.1081 24° Northeast  Level FlightAware Approximate
Tue 06:22:13 AM 26.3400 -98.1294 21° North 285 328 7,600  Level Houston Center
Tue 06:23:00 AM 26.5000 -98.0750 24° Northeast  Level FlightAware Approximate
Tue 06:23:13 AM 26.4181 -98.0956 21° North 280 322 9,600  Level Houston Center
Tue 06:24:00 AM 26.5665 -98.0427 22° Northeast  Level FlightAware Approximate
Tue 06:24:14 AM 26.4950 -98.0625 21° North 295 339 10,700  Level Houston Center
Tue 06:25:14 AM 26.5825 -98.0247 21° North 329 379 11,400 900 Climbing Houston Center
Tue 06:26:14 AM 26.6733 -97.9831 22° Northeast 348 400 12,500 1,091 Climbing Houston Center
Tue 06:27:15 AM 26.7608 -97.9300 28° Northeast 355 409 13,600 1,041 Climbing Houston Center
Tue 06:28:15 AM 26.8494 -97.8756 29° Northeast 362 417 14,600 1,050 Climbing Houston Center
Tue 06:29:15 AM 26.9389 -97.8206 29° Northeast 365 420 15,700 1,091 Climbing Houston Center
Tue 06:30:16 AM 27.0317 -97.7633 29° Northeast 377 434 16,800 1,041 Climbing Houston Center
Tue 06:31:16 AM 27.1222 -97.7083 28° Northeast 385 443 17,800 942 Climbing Houston Center
Tue 06:32:17 AM 27.2089 -97.6531 30° Northeast 380 437 18,700 595 Climbing Houston Center
Tue 06:33:17 AM 27.3042 -97.5933 29° Northeast 385 443 19,000 150 Climbing Houston Center
Tue 06:34:17 AM 27.4056 -97.5303 29° Northeast 409 471 19,000  Level Houston Center
Tue 06:35:18 AM 27.5103 -97.4647 29° Northeast 427 491 19,000  Level Houston Center
Tue 06:36:18 AM 27.6125 -97.4008 29° Northeast 423 487 19,000  Level Houston Center
Tue 06:37:19 AM 27.7122 -97.3392 29° Northeast 414 476 19,000  Level Houston Center
Tue 06:38:19 AM 27.8094 -97.2775 29° Northeast 406 467 19,000  Level Houston Center
Tue 06:39:20 AM 27.9069 -97.2161 29° Northeast 402 463 19,000  Level Houston Center
Tue 06:40:20 AM 28.0061 -97.1539 29° Northeast 401 461 19,000  Level Houston Center
Tue 06:41:20 AM 28.1078 -97.0906 29° Northeast 411 473 19,000  Level Houston Center
Tue 06:42:21 AM 28.2106 -97.0242 30° Northeast 422 486 19,000  Level Houston Center
Tue 06:43:21 AM 28.3153 -96.9581 29° Northeast 428 493 19,000  Level Houston Center
Tue 06:44:22 AM 28.4181 -96.8931 29° Northeast 426 490 19,000  Level Houston Center
Tue 06:45:22 AM 28.5433 -96.8136 29° Northeast 429 494 19,000  Level Houston Center
Tue 06:46:23 AM 28.6481 -96.7481 29° Northeast 430 495 19,000  Level Houston Center
Tue 06:47:23 AM 28.7514 -96.6794 30° Northeast 431 496 19,000  Level Houston Center
Tue 06:48:24 AM 28.8550 -96.6147 29° Northeast 428 493 19,000  Level Houston Center
Tue 06:49:24 AM 28.9578 -96.5478 30° Northeast 428 493 19,000 -248 Level Houston Center
Tue 06:50:25 AM 29.0619 -96.4822 29° Northeast 430 495 18,500 -992 Descending Houston Center
Tue 06:51:25 AM 29.1625 -96.4161 30° Northeast 424 488 17,000 -1,696 Descending Houston Center
Tue 06:51:57 AM 29.2217 -96.3800 28° Northeast 413 475 15,900 -1,941 Descending Houston Center
Tue 06:52:33 AM 29.2833 -96.3397 30° Northeast 409 471 14,800 -1,820 Descending Houston Center
Tue 06:53:26 AM 29.3561 -96.2914 30° Northeast 399 459 13,200 -2,000 Descending Houston Center
Tue 06:54:27 AM 29.4358 -96.2172 39° Northeast 374 430 11,000 -1,641 Descending Houston Center
Tue 06:55:23 AM 29.5117 -96.1369 43° Northeast 365 420 10,000 -513 Descending Houston Center
Tue 06:56:24 AM 29.5919 -96.0486 44° Northeast 368 423 10,000  Level Houston Center
Tue 06:57:24 AM 29.6669 -95.9681 43° Northeast 370 426 10,000  Level Houston Center
Tue 06:58:25 AM 29.7378 -95.8903 44° Northeast 348 400 10,000 -492 Level Houston Center
Tue 06:59:26 AM 29.7992 -95.8231 44° Northeast 288 331 9,000 -1,377 Descending Houston Center
Tue 07:00:27 AM 29.8583 -95.7583 43° Northeast 281 323 7,200 -1,636 Descending Houston Center
Tue 07:01:27 AM 29.9139 -95.6989 43° Northeast 272 313 5,700 -1,488 Descending Houston Center
Tue 07:02:28 AM 29.9647 -95.6325 49° Northeast 279 321 4,200 -1,230 Descending Houston Center
Tue 07:03:29 AM 29.9931 -95.5497 68° East 264 304 3,200 -1,131 Descending Houston Center
Tue 07:04:30 AM 29.9939 -95.4650 89° East 253 291 1,900 -1,279 Descending Houston Center

Login

Don't have an account? Register now (free) for customized features, flight alerts, and more!